Time;durP1;ratioP1;P1;durP2;ratioP2;P2;SDS_P1;SDS_P2;PMS_P1;PMS_P2;Temp;Humidity;BMP_temperature;BMP_pressure;BME280_temperature;BME280_humidity;BME280_pressure;Samples;Min_cycle;Max_cycle;Signal;HPM_P1;HPM_P2
2021/12/15 00:01:14;;;;;;;41.63;21.03;;;6.90;99.90;;;7.06;73.52;98923.16;5008373;28;20050;-40
2021/12/15 00:03:43;;;;;;;42.10;21.83;;;6.90;99.90;;;7.07;73.30;98929.28;5007043;28;20229;-40
2021/12/15 00:06:16;;;;;;;37.63;18.97;;;6.90;99.90;;;7.04;73.19;98930.34;5007706;28;20046;-40
2021/12/15 00:08:52;;;;;;;41.15;20.48;;;6.90;99.90;;;7.00;73.74;98926.22;5007427;28;20241;-40
2021/12/15 00:11:23;;;;;;;35.97;18.33;;;6.80;99.90;;;6.98;73.70;98927.28;5008367;28;20057;-40
2021/12/15 00:13:52;;;;;;;43.87;20.67;;;6.70;99.90;;;6.96;73.67;98930.06;5008770;28;20056;-40
2021/12/15 00:16:20;;;;;;;40.20;20.80;;;6.70;99.90;;;6.97;73.99;98929.06;5007183;28;20042;-40
2021/12/15 00:18:48;;;;;;;46.60;21.00;;;6.70;99.90;;;6.98;73.15;98927.28;5006630;28;20046;-40
2021/12/15 00:21:20;;;;;;;44.17;21.03;;;6.80;99.90;;;6.97;73.45;98930.88;5007784;28;20064;-40
2021/12/15 00:23:49;;;;;;;65.63;27.63;;;6.80;99.90;;;6.95;73.25;98933.63;5007082;28;20053;-40
2021/12/15 00:26:18;;;;;;;48.97;23.67;;;6.70;99.90;;;6.97;74.00;98925.59;5006463;28;20233;-40
2021/12/15 00:28:47;;;;;;;45.67;21.33;;;6.80;99.90;;;6.97;73.54;98930.88;5006630;28;20047;-40
2021/12/15 00:31:17;;;;;;;41.97;18.47;;;6.80;99.90;;;6.96;73.44;98927.41;5007725;28;20049;-40
2021/12/15 00:33:45;;;;;;;44.37;21.00;;;6.80;99.90;;;6.94;73.57;98931.97;5006524;28;20217;-40
2021/12/15 00:36:17;;;;;;;36.97;18.13;;;6.70;99.90;;;6.94;73.78;98929.31;5021550;28;20058;-40
2021/12/15 00:38:45;;;;;;;40.30;17.73;;;6.70;99.90;;;6.96;73.94;98943.28;5005823;28;20052;-40
2021/12/15 00:41:15;;;;;;;39.33;19.53;;;6.80;99.90;;;6.97;73.60;98933.53;5007585;28;20067;-40
2021/12/15 00:43:45;;;;;;;49.20;22.57;;;6.80;99.90;;;6.99;73.78;98940.41;5006365;28;20053;-40
2021/12/15 00:46:14;;;;;;;54.43;21.23;;;6.80;99.90;;;6.94;73.13;98942.56;5006648;28;20049;-40
2021/12/15 00:48:45;;;;;;;44.17;21.13;;;6.70;99.90;;;6.94;73.57;98941.69;5005955;28;20068;-40
2021/12/15 00:51:14;;;;;;;92.47;23.83;;;6.70;99.90;;;6.96;73.84;98940.63;5007015;28;20213;-40
2021/12/15 00:53:43;;;;;;;59.07;24.43;;;6.80;99.90;;;6.93;73.29;98937.34;5006263;28;20053;-40
2021/12/15 00:56:10;;;;;;;74.60;25.27;;;6.70;99.90;;;6.92;74.02;98939.16;5021927;28;20069;-40
2021/12/15 00:58:38;;;;;;;54.07;24.07;;;6.70;99.90;;;6.93;73.58;98940.84;5005629;28;20054;-40
2021/12/15 01:01:06;;;;;;;63.20;27.03;;;6.70;99.90;;;6.94;73.80;98942.56;5007563;28;20045;-40
2021/12/15 01:03:35;;;;;;;53.40;25.73;;;6.70;99.90;;;6.95;74.06;98935.44;5005652;28;20050;-40
2021/12/15 01:06:12;;;;;;;45.10;23.37;;;6.80;99.90;;;6.96;73.32;98937.13;5005352;28;20060;-40
2021/12/15 01:08:46;;;;;;;55.77;23.17;;;6.80;99.90;;;6.98;73.33;98935.22;5006557;28;20042;-40
2021/12/15 01:11:30;;;;;;;48.40;22.97;;;6.80;99.90;;;6.99;73.63;98936.91;5006605;28;20060;-40
2021/12/15 01:19:51;;;;;;;49.70;22.33;;;6.80;99.90;;;6.98;73.90;98932.56;5007188;28;20062;-40
2021/12/15 01:22:25;;;;;;;62.93;21.93;;;6.80;99.90;;;6.95;73.57;98936.28;5006827;28;20080;-40
2021/12/15 01:25:09;;;;;;;46.87;21.13;;;6.70;99.90;;;6.96;73.45;98938.00;5004971;28;20064;-40
2021/12/15 01:27:38;;;;;;;54.75;23.90;;;6.70;99.90;;;6.96;73.55;98940.63;5005896;28;20054;-40
2021/12/15 01:30:09;;;;;;;48.20;22.30;;;6.70;99.90;;;6.99;74.28;98937.75;5006535;28;20062;-40
2021/12/15 01:32:37;;;;;;;47.57;21.37;;;6.80;99.90;;;6.99;74.17;98939.56;5006107;28;20052;-40
2021/12/15 01:35:05;;;;;;;49.80;20.30;;;6.80;99.90;;;6.98;73.73;98936.09;5004943;28;20372;-40
2021/12/15 01:37:33;;;;;;;52.47;22.47;;;6.80;99.90;;;6.98;73.58;98941.38;5006476;28;20058;-40
2021/12/15 01:40:05;;;;;;;52.73;25.07;;;6.80;99.90;;;7.00;73.73;98946.53;5006363;28;20062;-40
2021/12/15 01:42:34;;;;;;;55.77;20.83;;;6.80;99.90;;;6.98;73.80;98943.16;5005640;28;20233;-40
2021/12/15 01:48:06;;;;;;;58.83;23.63;;;6.80;99.90;;;6.96;73.55;98951.22;5006157;28;20053;-40
2021/12/15 01:50:34;;;;;;;59.47;23.70;;;6.80;99.90;;;6.97;73.75;98952.06;5025360;28;20344;-40
2021/12/15 01:53:06;;;;;;;56.97;23.33;;;6.70;99.90;;;6.96;74.09;98950.34;5009373;28;20058;-40
2021/12/15 01:55:34;;;;;;;42.77;20.27;;;6.70;99.90;;;6.96;74.14;98950.34;5009578;28;20517;-40
2021/12/15 01:58:02;;;;;;;86.27;22.73;;;6.70;99.90;;;6.94;74.24;98953.13;5010020;28;20075;-40
2021/12/15 02:00:43;;;;;;;50.83;22.20;;;6.70;99.90;;;6.95;74.07;98952.16;5008956;28;20060;-40
2021/12/15 02:03:12;;;;;;;49.27;20.33;;;6.70;99.90;;;6.96;74.18;98955.66;5010189;28;20344;-40
2021/12/15 02:05:40;;;;;;;54.97;20.97;;;6.70;99.90;;;6.96;74.23;98953.88;5009333;28;20060;-40
2021/12/15 02:08:12;;;;;;;47.63;19.10;;;6.80;99.90;;;6.96;74.31;98948.59;5009253;28;20060;-40
2021/12/15 02:10:42;;;;;;;57.47;21.50;;;6.70;99.90;;;6.96;74.22;98948.59;5010326;28;20054;-40
2021/12/15 02:13:16;;;;;;;56.60;19.10;;;6.70;99.90;;;6.95;73.52;98948.69;5009339;28;20260;-40
2021/12/15 02:15:52;;;;;;;52.60;19.45;;;6.70;99.90;;;6.94;73.61;98949.63;5007035;28;20398;-40
2021/12/15 02:18:27;;;;;;;41.83;18.97;;;6.60;99.90;;;6.93;73.79;98940.84;5008559;28;20356;-40
2021/12/15 02:21:09;;;;;;;51.50;20.10;;;6.60;99.90;;;6.93;73.93;98942.66;5007211;28;20344;-40
2021/12/15 02:23:45;;;;;;;44.13;18.57;;;6.70;99.90;;;6.94;74.00;98941.69;5010364;28;20390;-40
2021/12/15 02:26:23;;;;;;;42.67;18.73;;;6.70;99.90;;;6.94;73.82;98941.69;5009133;28;20049;-40
2021/12/15 02:28:56;;;;;;;39.50;17.83;;;6.70;99.90;;;6.94;74.07;98945.19;5009430;28;20042;-40
2021/12/15 02:31:41;;;;;;;45.22;17.50;;;6.70;99.90;;;6.95;73.51;98946.03;5008439;28;20061;-40
2021/12/15 02:39:38;;;;;;;39.23;15.87;;;6.60;99.90;;;6.90;74.35;98941.91;5009310;28;20053;-40
2021/12/15 02:42:07;;;;;;;32.30;15.40;;;6.60;99.90;;;6.94;73.53;98944.31;5007468;28;20068;-40
2021/12/15 02:44:36;;;;;;;41.70;15.10;;;6.60;99.90;;;6.93;74.23;98954.06;5009130;28;20057;-40
2021/12/15 02:47:04;;;;;;;37.97;16.93;;;6.60;99.90;;;6.94;73.73;98946.97;5010012;28;20064;-40
2021/12/15 02:49:33;;;;;;;39.70;16.43;;;6.60;99.90;;;6.95;74.10;98949.53;5009170;28;20054;-40
2021/12/15 02:52:01;;;;;;;38.00;17.07;;;6.70;99.90;;;6.98;74.02;98948.44;5007853;28;20050;-40
2021/12/15 02:54:29;;;;;;;39.67;16.50;;;6.80;99.90;;;6.97;73.87;98942.31;5008767;28;20053;-40
2021/12/15 02:57:04;;;;;;;36.63;17.53;;;6.70;99.90;;;6.96;73.55;98942.41;5008188;28;20056;-40
2021/12/15 02:59:52;;;;;;;58.63;21.23;;;6.70;99.90;;;6.94;74.02;98934.59;5009435;28;20356;-40
2021/12/15 03:03:01;;;;;;;37.30;17.43;;;6.60;99.90;;;6.93;73.67;98940.84;5007989;28;20573;-40
2021/12/15 03:05:36;;;;;;;46.20;18.83;;;6.60;99.90;;;6.92;73.66;98948.88;5007899;28;20054;-40
2021/12/15 03:08:13;;;;;;;48.50;18.27;;;6.60;99.90;;;6.93;73.59;98950.59;5008338;28;20049;-40
2021/12/15 03:16:21;;;;;;;50.93;22.30;;;6.70;99.90;;;6.97;74.11;98957.38;5007148;28;20058;-40
2021/12/15 03:18:50;;;;;;;49.87;20.57;;;6.80;99.90;;;6.98;74.01;98945.81;5007705;28;20364;-40
2021/12/15 03:21:25;;;;;;;57.20;20.37;;;6.80;99.90;;;6.99;73.59;98958.94;5008589;28;20058;-40
2021/12/15 03:24:07;;;;;;;48.10;19.03;;;6.80;99.90;;;6.99;74.05;98961.59;5007357;28;20053;-40
2021/12/15 03:26:45;;;;;;;50.73;20.43;;;6.80;99.90;;;6.99;73.67;98955.47;5006284;28;20045;-40
2021/12/15 03:37:30;;;;;;;43.13;18.97;;;6.70;99.90;;;6.98;73.89;98951.09;5004271;28;20064;-40
2021/12/15 03:40:03;;;;;;;41.20;18.20;;;6.70;99.90;;;6.97;73.83;98950.25;5008628;28;20217;-40
2021/12/15 03:42:41;;;;;;;42.77;19.53;;;6.80;99.90;;;6.98;73.78;98951.09;5008145;28;20244;-40
2021/12/15 03:45:19;;;;;;;31.47;17.63;;;6.80;99.90;;;6.99;73.97;98958.09;5007554;28;20113;-40
2021/12/15 03:47:50;;;;;;;35.13;17.00;;;6.80;99.90;;;6.99;73.85;98956.28;5007973;28;20058;-40
2021/12/15 03:50:21;;;;;;;32.90;16.53;;;6.80;99.90;;;6.98;73.73;98959.91;5008834;28;20054;-40
2021/12/15 03:52:50;;;;;;;39.13;17.30;;;6.80;99.90;;;6.99;73.72;98963.41;5007334;28;20045;-40
2021/12/15 03:55:25;;;;;;;30.10;17.20;;;6.80;99.90;;;7.00;73.81;98952.72;5007322;28;20057;-40
2021/12/15 03:57:54;;;;;;;29.77;15.10;;;6.80;99.90;;;6.99;73.78;98956.28;5007461;28;20061;-40
2021/12/15 04:00:23;;;;;;;29.77;16.03;;;6.80;99.90;;;6.98;74.34;98959.91;5006638;28;20064;-40
2021/12/15 04:02:51;;;;;;;28.63;16.30;;;6.80;99.90;;;7.00;73.67;98960.66;5006733;28;20348;-40
2021/12/15 04:05:21;;;;;;;31.50;14.13;;;6.80;99.90;;;7.02;74.17;98965.84;5004435;28;20189;-40
2021/12/15 04:07:51;;;;;;;30.73;14.07;;;6.80;99.90;;;7.02;73.90;98960.56;5007379;28;20088;-40
2021/12/15 04:10:24;;;;;;;36.67;16.13;;;6.80;99.90;;;7.02;73.90;98963.19;5008556;28;20050;-40
2021/12/15 04:12:53;;;;;;;36.85;16.98;;;6.80;99.90;;;6.97;73.90;98963.50;5007504;28;20050;-40
2021/12/15 04:18:03;;;;;;;41.80;17.33;;;6.60;99.90;;;6.93;73.53;98961.19;5006892;28;20259;-40
2021/12/15 04:20:34;;;;;;;44.60;18.37;;;6.60;99.90;;;6.93;74.19;98961.19;5006640;28;20057;-40
2021/12/15 04:23:06;;;;;;;35.17;16.07;;;6.60;99.90;;;6.88;73.63;98954.41;5007769;28;20058;-40
2021/12/15 04:25:38;;;;;;;36.37;16.07;;;6.60;99.90;;;6.88;73.92;98959.69;5008325;28;20247;-40
2021/12/15 04:28:13;;;;;;;35.13;15.47;;;6.60;99.90;;;6.87;73.52;98960.63;5008153;28;20236;-40
2021/12/15 04:30:52;;;;;;;35.63;15.93;;;6.50;99.90;;;6.84;73.96;98960.88;5007222;28;20056;-40
2021/12/15 04:33:32;;;;;;;39.33;17.10;;;6.50;99.90;;;6.83;73.70;98974.22;5006756;28;20056;-40
2021/12/15 04:36:03;;;;;;;40.13;18.43;;;6.50;99.90;;;6.81;73.80;98969.00;5007262;28;20598;-40
2021/12/15 04:38:32;;;;;;;41.27;17.90;;;6.50;99.90;;;6.80;73.68;98969.94;5006630;28;20056;-40
2021/12/15 04:41:04;;;;;;;40.07;17.70;;;6.50;99.90;;;6.81;74.16;98974.31;5007393;28;20060;-40
2021/12/15 04:43:34;;;;;;;36.63;17.37;;;6.50;99.90;;;6.82;74.37;98969.84;5006731;28;20041;-40
2021/12/15 04:46:04;;;;;;;38.77;16.17;;;6.50;99.90;;;6.80;73.94;98969.09;5006301;28;20068;-40
2021/12/15 04:48:33;;;;;;;35.30;15.53;;;6.50;99.90;;;6.78;73.91;98971.84;5006844;28;20061;-40
2021/12/15 04:51:02;;;;;;;32.00;15.97;;;6.40;99.90;;;6.77;74.32;98972.81;5006071;28;20054;-40
2021/12/15 04:53:30;;;;;;;30.00;13.57;;;6.50;99.90;;;6.78;74.33;98976.31;5006484;28;20061;-40
2021/12/15 04:55:58;;;;;;;32.53;16.10;;;6.50;99.90;;;6.77;74.04;98972.81;5005953;28;20060;-40
2021/12/15 04:58:26;;;;;;;34.43;15.50;;;6.50;99.90;;;6.76;74.37;98972.91;5006690;28;20561;-40
2021/12/15 05:00:59;;;;;;;32.53;14.30;;;6.40;99.90;;;6.75;73.61;98968.59;5006115;28;20060;-40
2021/12/15 05:03:27;;;;;;;31.05;15.07;;;6.40;99.90;;;6.73;74.35;98971.34;5005886;28;20072;-40
2021/12/15 05:05:55;;;;;;;32.97;14.70;;;6.40;99.90;;;6.74;74.03;98978.31;5006822;28;20053;-40
2021/12/15 05:08:23;;;;;;;31.17;14.17;;;6.40;99.90;;;6.74;74.05;98969.53;5007548;28;20068;-40
2021/12/15 05:10:54;;;;;;;31.37;15.50;;;6.40;99.90;;;6.75;74.56;98973.88;5007054;28;20046;-40
2021/12/15 05:13:23;;;;;;;29.60;14.43;;;6.40;99.90;;;6.75;74.14;98972.09;5006957;28;20049;-40
2021/12/15 05:15:51;;;;;;;30.33;14.70;;;6.30;99.90;;;6.77;74.45;98982.56;5005669;28;20053;-40
2021/12/15 05:18:20;;;;;;;30.57;14.57;;;6.50;99.90;;;6.76;74.52;98981.69;5006396;28;20046;-40
2021/12/15 05:20:51;;;;;;;26.37;13.27;;;6.50;99.90;;;6.78;73.90;98985.09;5006545;28;20064;-40
2021/12/15 05:23:21;;;;;;;28.50;13.20;;;6.50;99.90;;;6.80;74.04;98985.81;5007814;28;20113;-40
2021/12/15 05:25:49;;;;;;;28.60;13.63;;;6.50;99.90;;;6.81;74.55;98989.34;5010830;28;20244;-40
2021/12/15 05:28:17;;;;;;;30.27;14.33;;;6.50;99.90;;;6.79;74.43;98986.78;5011057;28;20146;-40
2021/12/15 05:30:45;;;;;;;26.83;13.63;;;6.50;99.90;;;6.81;74.11;98992.00;5011469;28;20068;-40
2021/12/15 05:33:13;;;;;;;25.63;12.97;;;6.50;99.90;;;6.83;74.44;98990.09;5009881;28;20351;-40
2021/12/15 05:35:41;;;;;;;29.80;13.50;;;6.60;99.90;;;6.83;74.42;98996.22;5010830;28;20083;-40
2021/12/15 05:38:09;;;;;;;26.77;13.20;;;6.50;99.90;;;6.83;73.99;98990.09;5009729;28;20050;-40
2021/12/15 05:40:37;;;;;;;27.57;13.13;;;6.50;99.90;;;6.83;74.28;98998.88;5010767;28;20056;-40
2021/12/15 05:43:07;;;;;;;27.20;13.07;;;6.50;99.90;;;6.83;73.67;98990.94;5010762;28;20369;-39
2021/12/15 05:45:38;;;;;;;24.70;14.27;;;6.50;99.90;;;6.83;74.16;98995.38;5010446;28;20374;-40
2021/12/15 05:48:13;;;;;;;27.70;14.13;;;6.50;99.90;;;6.83;73.79;98996.22;5009740;28;20678;-40
2021/12/15 05:50:44;;;;;;;26.03;12.67;;;6.50;99.90;;;6.85;74.20;98998.78;5009742;28;20049;-40
2021/12/15 05:53:13;;;;;;;28.50;13.93;;;6.60;99.90;;;6.86;74.02;98998.66;5009735;28;20064;-40
2021/12/15 05:55:42;;;;;;;23.70;11.93;;;6.60;99.90;;;6.88;74.34;99003.84;5009420;28;20065;-40
2021/12/15 05:58:10;;;;;;;24.13;11.60;;;6.60;99.90;;;6.90;73.79;99004.56;5008961;28;20083;-40
2021/12/15 06:00:41;;;;;;;22.83;13.47;;;6.60;99.90;;;6.92;74.41;99005.34;5011338;28;20252;-40
2021/12/15 06:03:10;;;;;;;22.97;12.20;;;6.60;99.90;;;6.92;74.36;99008.00;5010144;28;20060;-40
2021/12/15 06:05:38;;;;;;;17.73;10.60;;;6.60;99.90;;;6.95;74.33;99017.53;5010859;28;20053;-40
2021/12/15 06:08:07;;;;;;;17.10;10.53;;;6.60;99.90;;;6.93;73.40;99009.69;5009851;28;20045;-40
2021/12/15 06:10:36;;;;;;;18.27;10.63;;;6.70;99.90;;;6.97;73.81;99023.56;5010023;28;20057;-40
2021/12/15 06:13:10;;;;;;;23.63;13.07;;;6.70;99.90;;;6.97;73.60;99016.44;5008644;28;20344;-40
2021/12/15 06:15:40;;;;;;;19.63;11.35;;;6.70;99.90;;;6.99;73.60;99021.66;5008746;28;20049;-40
2021/12/15 06:18:13;;;;;;;26.97;14.20;;;6.70;99.90;;;7.00;73.73;99018.03;5009617;28;20348;-40
2021/12/15 06:20:43;;;;;;;22.30;13.87;;;6.70;99.90;;;6.97;73.85;99010.31;5010149;28;20241;-40
2021/12/15 06:23:18;;;;;;;28.00;14.97;;;6.70;99.90;;;6.99;73.68;99011.06;5009519;28;20088;-40
2021/12/15 06:25:50;;;;;;;34.43;18.03;;;6.70;99.90;;;7.01;73.26;99023.22;5010047;28;20037;-40
2021/12/15 06:28:19;;;;;;;28.10;17.53;;;6.70;99.90;;;7.01;73.63;99022.38;5008623;28;20065;-40
2021/12/15 06:30:48;;;;;;;33.07;19.27;;;6.70;99.90;;;7.01;73.41;99017.09;5009300;28;20045;-40
2021/12/15 06:33:16;;;;;;;84.83;49.50;;;6.70;99.90;;;7.01;73.34;99020.59;5009150;28;20057;-40
2021/12/15 06:35:57;;;;;;;38.20;22.93;;;6.70;99.90;;;7.02;73.59;99024.09;5008408;28;20054;-40
2021/12/15 06:38:32;;;;;;;30.90;20.27;;;6.80;99.90;;;7.03;73.85;99023.13;5008888;28;20046;-40
2021/12/15 06:41:01;;;;;;;31.40;19.90;;;6.80;99.90;;;7.02;73.34;99027.59;5009099;28;20072;-40
2021/12/15 06:43:29;;;;;;;23.23;14.27;;;6.70;99.90;;;7.02;73.28;99034.69;5008722;28;20072;-40
2021/12/15 06:46:20;;;;;;;25.63;16.00;;;6.70;99.90;;;7.01;73.54;99025.03;5009758;28;20069;-40
2021/12/15 06:59:54;;;;;;;30.77;18.63;;;6.90;99.90;;;7.08;73.18;99040.41;5008653;28;20066;-39
2021/12/15 07:02:23;;;;;;;24.07;13.03;;;6.90;99.90;;;7.10;73.07;99045.59;5008091;28;20054;-39
2021/12/15 07:04:51;;;;;;;21.90;12.97;;;6.80;99.90;;;7.10;73.53;99050.91;5007868;28;20064;-39
2021/12/15 07:07:19;;;;;;;31.67;17.00;;;6.80;99.90;;;7.09;73.59;99052.72;5005504;28;20057;-40
2021/12/15 07:09:48;;;;;;;27.37;15.10;;;6.80;99.90;;;7.09;73.22;99049.19;5009469;28;20061;-40
2021/12/15 07:12:18;;;;;;;24.83;15.30;;;6.80;99.90;;;7.09;73.22;99054.50;5007185;28;20048;-39
2021/12/15 07:14:46;;;;;;;27.80;15.37;;;6.80;99.90;;;7.08;73.24;99053.66;5008464;28;20463;-39
2021/12/15 07:17:20;;;;;;;21.27;12.70;;;6.80;99.90;;;7.10;73.48;99064.97;5008305;28;20058;-39
2021/12/15 07:20:06;;;;;;;22.53;13.80;;;6.90;99.90;;;7.13;72.95;99065.72;5007577;28;20041;-40
2021/12/15 07:25:14;;;;;;;25.77;15.70;;;6.90;99.90;;;7.16;72.99;99079.59;5008318;28;20054;-40
2021/12/15 07:27:42;;;;;;;18.63;12.23;;;7.00;99.90;;;7.16;72.87;99079.59;5007339;28;20267;-40
2021/12/15 07:30:10;;;;;;;19.87;12.20;;;6.90;99.90;;;7.18;73.07;99076.88;5008893;28;20050;-39
2021/12/15 07:32:39;;;;;;;22.63;14.33;;;7.00;99.90;;;7.20;73.18;99090.84;5008249;28;20060;-40
2021/12/15 07:35:10;;;;;;;17.90;11.50;;;7.00;99.90;;;7.19;72.87;99092.66;5007531;28;20050;-40
2021/12/15 07:37:38;;;;;;;18.60;11.77;;;7.00;99.90;;;7.21;72.71;99096.06;5008092;28;20050;-40
2021/12/15 07:40:12;;;;;;;22.27;13.07;;;7.00;99.90;;;7.23;73.11;99096.78;5008020;28;20058;-39
2021/12/15 07:42:55;;;;;;;25.27;13.17;;;7.00;99.90;;;7.22;72.76;99097.72;5007657;28;20066;-40
2021/12/15 07:45:27;;;;;;;24.00;14.50;;;7.00;99.90;;;7.22;73.35;99102.19;5014702;28;20042;-40
2021/12/15 07:48:01;;;;;;;23.17;14.30;;;7.00;99.90;;;7.23;72.56;99102.09;5026565;28;20055;-39
2021/12/15 07:50:31;;;;;;;24.40;14.23;;;7.00;99.90;;;7.24;72.95;99097.63;5026870;28;20061;-40
2021/12/15 07:53:00;;;;;;;24.33;16.60;;;7.10;99.90;;;7.23;72.87;99095.91;5027102;28;20056;-40
2021/12/15 07:55:28;;;;;;;30.67;16.80;;;7.10;99.90;;;7.25;72.83;99099.31;5027117;28;20041;-41
2021/12/15 07:57:56;;;;;;;26.77;15.13;;;7.10;99.90;;;7.23;72.84;99103.88;5027334;28;20507;-40
2021/12/15 08:00:25;;;;;;;30.73;15.23;;;7.00;99.90;;;7.22;73.07;99105.66;5028802;28;20051;-40
2021/12/15 08:02:54;;;;;;;29.40;13.90;;;7.00;99.90;;;7.21;73.17;99111.06;5025163;28;20045;-40
2021/12/15 08:05:22;;;;;;;26.23;15.60;;;7.00;99.90;;;7.21;72.99;99114.59;5026915;28;20041;-40
2021/12/15 08:07:50;;;;;;;29.17;13.50;;;7.00;99.90;;;7.21;73.35;99108.41;5026246;28;20080;-40
2021/12/15 08:10:18;;;;;;;21.13;13.30;;;7.00;99.90;;;7.21;72.83;99111.06;5026242;28;20045;-40
2021/12/15 08:12:47;;;;;;;20.57;12.60;;;7.00;99.90;;;7.20;72.79;99119.97;5027275;28;20053;-40
2021/12/15 08:15:17;;;;;;;21.43;11.83;;;7.00;99.90;;;7.17;73.21;99117.53;5026198;28;20045;-39
2021/12/15 08:17:50;;;;;;;20.13;11.57;;;6.90;99.90;;;7.16;72.85;99118.50;5027751;28;20353;-40
2021/12/15 08:20:27;;;;;;;18.95;11.93;;;6.90;99.90;;;7.16;73.26;99114.03;5027579;28;20053;-40
2021/12/15 08:22:56;;;;;;;16.27;10.73;;;7.00;99.90;;;7.18;72.91;99122.72;5027392;28;20049;-40
2021/12/15 08:25:26;;;;;;;17.77;10.70;;;7.00;99.90;;;7.20;73.08;99125.28;5025565;28;20310;-40
2021/12/15 08:27:55;;;;;;;17.17;11.27;;;7.00;99.90;;;7.21;72.54;99124.31;5027254;28;20060;-40
2021/12/15 08:30:28;;;;;;;18.17;11.77;;;7.00;99.90;;;7.22;72.60;99132.16;5027741;28;20268;-39
2021/12/15 08:33:06;;;;;;;17.10;11.37;;;7.00;99.90;;;7.24;73.19;99132.06;5019517;28;20247;-40
2021/12/15 08:35:45;;;;;;;18.10;10.97;;;7.10;99.90;;;7.25;72.92;99131.97;5006166;28;20072;-40
2021/12/15 08:38:13;;;;;;;16.70;11.17;;;7.10;99.90;;;7.27;72.70;99134.53;5006977;28;20466;-40
2021/12/15 08:40:43;;;;;;;17.47;10.43;;;7.10;99.90;;;7.27;72.98;99132.72;5007677;28;20259;-40
2021/12/15 08:43:14;;;;;;;16.40;10.90;;;7.10;99.90;;;7.29;72.62;99138.75;5006471;28;20041;-40
2021/12/15 08:45:51;;;;;;;17.43;11.17;;;7.10;99.90;;;7.30;72.76;99137.78;5005798;28;20049;-40
2021/12/15 08:48:20;;;;;;;15.87;10.50;;;7.10;99.90;;;7.33;72.92;99138.53;5006244;28;20046;-40
2021/12/15 08:50:47;;;;;;;18.40;10.50;;;7.10;99.90;;;7.34;72.88;99137.59;5006773;28;20076;-40
2021/12/15 08:53:16;;;;;;;18.90;10.50;;;7.10;99.90;;;7.33;72.62;99141.19;5006435;28;20060;-40
2021/12/15 08:55:47;;;;;;;18.70;11.53;;;7.10;99.90;;;7.36;72.60;99138.31;5005112;28;20046;-40
2021/12/15 08:58:19;;;;;;;17.30;10.40;;;7.20;99.90;;;7.35;72.89;99134.84;5004424;28;20048;-40
2021/12/15 09:00:56;;;;;;;16.90;12.00;;;7.20;99.90;;;7.37;72.66;99137.41;5025159;28;20049;-40
2021/12/15 09:03:26;;;;;;;16.23;10.33;;;7.20;99.90;;;7.38;72.90;99124.00;5030813;28;20045;-40
2021/12/15 09:05:59;;;;;;;18.50;10.83;;;7.20;99.90;;;7.40;72.81;99130.06;5025197;28;20344;-40
2021/12/15 09:08:29;;;;;;;14.98;10.25;;;7.20;99.90;;;7.42;72.49;99129.97;5031470;28;20053;-40
2021/12/15 09:11:05;;;;;;;18.07;11.30;;;7.20;99.90;;;7.43;72.63;99135.16;5032596;28;20271;-40
2021/12/15 09:13:32;;;;;;;18.53;11.03;;;7.20;99.90;;;7.45;72.68;99141.19;5029925;28;20053;-40
2021/12/15 09:16:06;;;;;;;16.10;10.90;;;7.30;99.90;;;7.47;73.15;99146.41;5036356;28;20055;-40
2021/12/15 09:18:37;;;;;;;17.03;10.20;;;7.30;99.90;;;7.48;72.66;99148.09;5029565;28;20374;-40
2021/12/15 09:21:06;;;;;;;17.50;12.23;;;7.30;99.90;;;7.51;72.30;99144.41;5023891;28;20045;-40
2021/12/15 09:23:35;;;;;;;17.47;10.57;;;7.40;99.90;;;7.50;72.89;99154.13;5026438;28;20059;-40
2021/12/15 09:26:04;;;;;;;18.00;10.93;;;7.40;99.90;;;7.49;72.52;99157.75;5024932;28;20049;-40
2021/12/15 09:28:34;;;;;;;17.47;12.07;;;7.40;99.90;;;7.51;72.78;99157.66;5023994;28;20224;-40
2021/12/15 09:31:06;;;;;;;19.77;11.40;;;7.30;99.90;;;7.49;72.29;99147.97;5025269;28;20059;-40
2021/12/15 09:33:38;;;;;;;16.00;11.47;;;7.30;99.90;;;7.49;72.14;99163.03;5025887;28;20049;-40
2021/12/15 09:36:07;;;;;;;16.43;10.73;;;7.30;99.90;;;7.52;72.55;99164.63;5025119;28;20064;-40
2021/12/15 09:38:36;;;;;;;16.93;10.93;;;7.30;99.90;;;7.51;72.55;99162.94;5025102;28;20053;-40
2021/12/15 09:41:10;;;;;;;19.87;12.23;;;7.30;99.90;;;7.49;72.14;99153.28;5026727;28;20063;-40
2021/12/15 09:43:39;;;;;;;18.10;11.43;;;7.30;99.90;;;7.49;72.29;99155.94;5026155;28;20038;-40
2021/12/15 09:46:26;;;;;;;16.20;10.57;;;7.30;99.90;;;7.51;72.27;99160.28;5026042;28;20057;-40
2021/12/15 10:03:14;;;;;;;15.90;9.80;;;7.40;99.90;;;7.55;71.82;99173.22;5025364;28;20248;-40
2021/12/15 10:19:51;;;;;;;9.93;6.77;;;7.40;99.90;;;7.63;71.94;99149.69;5027945;28;20059;-40
2021/12/15 10:22:38;;;;;;;9.57;6.37;;;7.50;99.90;;;7.65;71.44;99157.53;5028571;28;20067;-40
2021/12/15 10:25:06;;;;;;;12.07;7.20;;;7.50;99.90;;;7.64;71.13;99158.50;5029175;28;20263;-41
2021/12/15 10:27:50;;;;;;;9.67;6.60;;;7.50;99.90;;;7.65;71.56;99150.41;5028278;28;20076;-40
2021/12/15 10:30:37;;;;;;;12.40;6.85;;;7.50;99.90;;;7.65;71.33;99147.78;5026972;28;20061;-40
2021/12/15 10:33:13;;;;;;;9.30;6.23;;;7.50;99.90;;;7.65;71.13;99153.06;5029104;28;20235;-40
2021/12/15 10:35:45;;;;;;;9.33;5.57;;;7.50;99.90;;;7.68;71.19;99152.03;5029387;28;20056;-40
2021/12/15 10:38:38;;;;;;;6.57;4.30;;;7.50;99.90;;;7.69;71.03;99148.41;5028765;28;20057;-40
2021/12/15 10:41:26;;;;;;;7.73;5.57;;;7.50;99.90;;;7.69;70.66;99145.75;5028843;28;20049;-40
2021/12/15 10:43:57;;;;;;;13.43;6.67;;;7.50;99.90;;;7.69;70.80;99145.75;5027448;28;20362;-40
2021/12/15 10:46:33;;;;;;;9.47;6.63;;;7.50;99.90;;;7.67;70.75;99137.06;5029482;28;20349;-41
2021/12/15 10:49:15;;;;;;;8.20;6.10;;;7.50;99.90;;;7.66;70.63;99138.88;5028701;28;20041;-41
2021/12/15 10:51:55;;;;;;;6.57;4.83;;;7.50;99.90;;;7.65;70.90;99133.69;5029025;28;20058;-40
2021/12/15 10:54:46;;;;;;;6.70;4.47;;;7.50;99.90;;;7.67;70.81;99132.59;5028122;28;20051;-40
2021/12/15 10:57:34;;;;;;;5.83;3.57;;;7.50;99.90;;;7.68;70.54;99136.13;5028010;28;20332;-40
2021/12/15 11:00:10;;;;;;;6.03;3.83;;;7.50;99.90;;;7.69;70.36;99128.03;5028325;28;20348;-40
2021/12/15 11:02:39;;;;;;;6.53;4.40;;;7.50;99.90;;;7.68;70.35;99139.63;5028301;28;20046;-40
2021/12/15 11:05:20;;;;;;;7.23;4.40;;;7.50;99.90;;;7.67;70.32;99137.91;5028091;28;20065;-40
2021/12/15 11:07:56;;;;;;;6.37;4.87;;;7.50;99.90;;;7.65;70.49;99129.22;5028217;28;20045;-40
2021/12/15 11:10:34;;;;;;;10.10;4.77;;;7.40;99.90;;;7.65;70.38;99129.22;5028711;28;20244;-40
2021/12/15 11:13:10;;;;;;;5.93;4.20;;;7.50;99.90;;;7.67;70.68;99123.81;5027836;28;20054;-41
2021/12/15 11:15:46;;;;;;;7.10;4.23;;;7.50;99.90;;;7.69;70.44;99127.22;5028295;28;20046;-41
2021/12/15 11:18:31;;;;;;;6.10;4.83;;;7.50;99.90;;;7.68;70.23;99123.72;5028176;28;20052;-40
2021/12/15 11:21:08;;;;;;;10.60;6.07;;;7.50;99.90;;;7.71;70.34;99127.09;5028276;28;20063;-41
2021/12/15 11:23:39;;;;;;;8.67;4.87;;;7.50;99.90;;;7.72;70.22;99126.16;5027728;28;20057;-41
2021/12/15 11:26:11;;;;;;;8.70;5.00;;;7.50;99.90;;;7.73;69.91;99125.19;5027409;28;20052;-41
2021/12/15 11:28:42;;;;;;;7.70;5.23;;;7.50;99.90;;;7.72;70.01;99115.56;5028043;28;20042;-40
2021/12/15 11:31:12;;;;;;;12.30;6.00;;;7.50;99.90;;;7.72;70.06;99115.56;5030790;28;20055;-41
2021/12/15 11:33:53;;;;;;;9.60;5.40;;;7.50;99.90;;;7.72;69.72;99121.69;5027054;28;20059;-41
2021/12/15 11:36:27;;;;;;;7.80;4.90;;;7.60;99.90;;;7.73;69.85;99120.72;5028530;28;20049;-41
2021/12/15 11:38:59;;;;;;;7.40;4.68;;;7.60;99.90;;;7.73;69.64;99118.06;5026442;28;20310;-41
2021/12/15 11:41:39;;;;;;;7.37;5.17;;;7.50;99.90;;;7.72;69.90;99111.09;5021124;28;20104;-41
2021/12/15 11:44:20;;;;;;;7.53;5.43;;;7.60;99.90;;;7.74;69.71;99117.13;5006721;28;20060;-41
2021/12/15 11:47:01;;;;;;;7.07;4.70;;;7.50;99.90;;;7.74;69.48;99113.66;5006307;28;20060;-41
2021/12/15 11:49:41;;;;;;;6.57;4.67;;;7.50;99.90;;;7.74;69.69;99106.53;5008291;28;20504;-41
2021/12/15 11:52:14;;;;;;;8.83;5.83;;;7.50;99.90;;;7.75;69.70;99100.25;5007497;28;20046;-41
2021/12/15 11:54:48;;;;;;;8.27;4.70;;;7.60;99.90;;;7.74;69.94;99095.94;5007194;28;20328;-41